Time;durP1;ratioP1;P1;durP2;ratioP2;P2;SDS_P1;SDS_P2;PMS_P1;PMS_P2;Temp;Humidity;BMP_temperature;BMP_pressure;BME280_temperature;BME280_humidity;BME280_pressure;Samples;Min_cycle;Max_cycle;Signal;HPM_P1;HPM_P2
2022/09/17 00:01:20;;;;;;;8.23;1.92;;;;;;;;;;5070643;28;20052;-74
2022/09/17 00:03:49;;;;;;;14.30;1.90;;;;;;;;;;5066332;28;20103;-74
2022/09/17 00:06:16;;;;;;;10.20;1.75;;;;;;;;;;5068663;28;20048;-74
2022/09/17 00:08:43;;;;;;;9.88;1.88;;;;;;;;;;5074426;28;20921;-74
2022/09/17 00:11:20;;;;;;;9.77;1.55;;;;;;;;;;5075528;28;20052;-73
2022/09/17 00:13:47;;;;;;;7.10;1.33;;;;;;;;;;5079396;28;20045;-74
2022/09/17 00:16:22;;;;;;;12.73;2.15;;;;;;;;;;5076281;28;21607;-75
2022/09/17 00:18:50;;;;;;;8.10;1.40;;;;;;;;;;5080522;28;20135;-74
2022/09/17 00:21:18;;;;;;;8.30;1.75;;;;;;;;;;5078503;28;20054;-75
2022/09/17 00:23:46;;;;;;;8.25;1.67;;;;;;;;;;5070639;28;20124;-74
2022/09/17 00:26:13;;;;;;;10.95;1.90;;;;;;;;;;5064761;28;20052;-74
2022/09/17 00:28:44;;;;;;;7.03;1.40;;;;;;;;;;5073944;28;20826;-75
2022/09/17 00:31:11;;;;;;;7.82;1.75;;;;;;;;;;5067378;28;20053;-74
2022/09/17 00:33:38;;;;;;;11.05;2.10;;;;;;;;;;5065529;28;20054;-75
2022/09/17 00:36:06;;;;;;;8.07;1.30;;;;;;;;;;5065283;28;20060;-74
2022/09/17 00:38:33;;;;;;;6.78;1.38;;;;;;;;;;5075911;28;20122;-74
2022/09/17 00:41:01;;;;;;;7.13;1.63;;;;;;;;;;5068970;28;20850;-73
2022/09/17 00:43:57;;;;;;;8.02;1.60;;;;;;;;;;5071368;28;20037;-74
2022/09/17 00:46:25;;;;;;;10.45;2.75;;;;;;;;;;5075616;28;20853;-74
2022/09/17 00:48:53;;;;;;;7.07;1.50;;;;;;;;;;5073301;28;20052;-75
2022/09/17 00:51:25;;;;;;;9.38;1.70;;;;;;;;;;5076058;28;20053;-74
2022/09/17 00:53:52;;;;;;;7.45;1.45;;;;;;;;;;5083691;28;20053;-75
2022/09/17 00:56:25;;;;;;;12.38;1.65;;;;;;;;;;5068143;28;20140;-75
2022/09/17 00:58:52;;;;;;;7.25;1.98;;;;;;;;;;5067955;28;20057;-74
2022/09/17 01:01:20;;;;;;;9.27;1.25;;;;;;;;;;5064996;28;20055;-74
2022/09/17 01:03:48;;;;;;;7.88;1.63;;;;;;;;;;5082660;28;20052;-74
2022/09/17 01:06:27;;;;;;;11.93;2.03;;;;;;;;;;5075530;28;20053;-75
2022/09/17 01:09:13;;;;;;;10.82;2.08;;;;;;;;;;5067065;28;20049;-75
2022/09/17 01:11:40;;;;;;;16.73;2.42;;;;;;;;;;5065065;28;20985;-74
2022/09/17 01:14:26;;;;;;;11.95;1.65;;;;;;;;;;5066893;28;20049;-75
2022/09/17 01:17:07;;;;;;;6.75;1.63;;;;;;;;;;5080333;28;20886;-74
2022/09/17 01:20:03;;;;;;;10.18;1.63;;;;;;;;;;5068876;28;20049;-74
2022/09/17 01:22:33;;;;;;;11.73;1.50;;;;;;;;;;5032938;28;20558;-75
2022/09/17 01:25:15;;;;;;;8.80;1.70;;;;;;;;;;5032433;28;20140;-74
2022/09/17 01:28:02;;;;;;;11.07;1.70;;;;;;;;;;5031084;28;20108;-74
2022/09/17 01:30:48;;;;;;;7.75;2.00;;;;;;;;;;5023117;28;20061;-74
2022/09/17 01:33:24;;;;;;;9.27;2.03;;;;;;;;;;5036431;28;20053;-74
2022/09/17 01:35:57;;;;;;;6.40;1.67;;;;;;;;;;5024733;28;20050;-74
2022/09/17 01:38:27;;;;;;;8.27;1.90;;;;;;;;;;5023577;28;20194;-74
2022/09/17 01:41:08;;;;;;;7.90;1.30;;;;;;;;;;5029119;28;20053;-74
2022/09/17 01:43:57;;;;;;;4.55;0.98;;;;;;;;;;5033370;28;20097;-74
2022/09/17 01:46:33;;;;;;;7.60;1.77;;;;;;;;;;5022637;28;20512;-74
2022/09/17 01:49:02;;;;;;;4.32;1.90;;;;;;;;;;5024324;28;20069;-74
2022/09/17 01:51:34;;;;;;;7.95;1.70;;;;;;;;;;5031217;28;20053;-73
2022/09/17 01:54:23;;;;;;;8.40;1.60;;;;;;;;;;5043325;28;20053;-74
2022/09/17 01:56:50;;;;;;;6.68;1.10;;;;;;;;;;5006961;28;21123;-74
2022/09/17 01:59:21;;;;;;;7.90;1.65;;;;;;;;;;5052250;28;20053;-73
2022/09/17 02:01:52;;;;;;;7.45;1.33;;;;;;;;;;5066817;28;20061;-73
2022/09/17 02:04:21;;;;;;;11.70;1.73;;;;;;;;;;5063044;28;21050;-74
2022/09/17 02:06:52;;;;;;;7.93;1.88;;;;;;;;;;5068657;28;20761;-74
2022/09/17 02:09:22;;;;;;;9.48;1.48;;;;;;;;;;5070904;28;20060;-74
2022/09/17 02:11:54;;;;;;;11.30;1.52;;;;;;;;;;5070968;28;20060;-74
2022/09/17 02:14:24;;;;;;;8.00;1.42;;;;;;;;;;5085901;28;20920;-74
2022/09/17 02:16:53;;;;;;;4.43;0.93;;;;;;;;;;5070424;28;20048;-73
2022/09/17 02:19:23;;;;;;;7.60;1.00;;;;;;;;;;5074842;28;20905;-74
2022/09/17 02:21:59;;;;;;;9.57;1.65;;;;;;;;;;5078705;28;20103;-74
2022/09/17 02:24:31;;;;;;;7.75;1.33;;;;;;;;;;5074766;28;20041;-74
2022/09/17 02:27:17;;;;;;;12.07;0.90;;;;;;;;;;5069361;28;20061;-73
2022/09/17 02:29:44;;;;;;;5.55;1.40;;;;;;;;;;5074113;28;20110;-73
2022/09/17 02:32:12;;;;;;;11.80;2.13;;;;;;;;;;5075692;28;20075;-73
2022/09/17 02:34:40;;;;;;;7.43;1.55;;;;;;;;;;5069195;28;20082;-74
2022/09/17 02:37:07;;;;;;;7.05;1.15;;;;;;;;;;5088317;28;20893;-74
2022/09/17 02:39:35;;;;;;;9.27;1.65;;;;;;;;;;5068285;28;20061;-74
2022/09/17 02:42:21;;;;;;;8.65;1.35;;;;;;;;;;5069648;28;20103;-74
2022/09/17 02:45:01;;;;;;;8.20;1.00;;;;;;;;;;5075210;28;20052;-73
2022/09/17 02:47:32;;;;;;;6.72;1.10;;;;;;;;;;5076212;28;20048;-74
2022/09/17 02:50:09;;;;;;;7.55;1.35;;;;;;;;;;5070442;28;20111;-74
2022/09/17 02:52:55;;;;;;;4.22;0.77;;;;;;;;;;5074210;28;20082;-73
2022/09/17 02:55:26;;;;;;;4.18;1.17;;;;;;;;;;5068149;28;20057;-74
2022/09/17 02:57:57;;;;;;;5.68;1.10;;;;;;;;;;5071591;28;20056;-74
2022/09/17 03:00:27;;;;;;;8.98;2.03;;;;;;;;;;5073737;28;20131;-74
2022/09/17 03:03:03;;;;;;;9.05;1.17;;;;;;;;;;5077060;28;20056;-75
2022/09/17 03:05:30;;;;;;;3.63;0.98;;;;;;;;;;5074128;28;21310;-74
2022/09/17 03:07:58;;;;;;;7.32;1.35;;;;;;;;;;5074401;28;20080;-73
2022/09/17 03:10:32;;;;;;;7.60;1.33;;;;;;;;;;5071998;28;20059;-74
2022/09/17 03:12:59;;;;;;;4.38;1.42;;;;;;;;;;5068096;28;20107;-74
2022/09/17 03:15:27;;;;;;;7.22;1.23;;;;;;;;;;5067162;28;20053;-74
2022/09/17 03:17:54;;;;;;;4.78;1.00;;;;;;;;;;5067201;28;20507;-73
2022/09/17 03:20:22;;;;;;;5.70;1.30;;;;;;;;;;5073825;28;20053;-74
2022/09/17 03:22:50;;;;;;;7.80;1.48;;;;;;;;;;5065851;28;20145;-74
2022/09/17 03:25:18;;;;;;;8.80;1.33;;;;;;;;;;5067990;28;20049;-73
2022/09/17 03:27:47;;;;;;;8.35;1.20;;;;;;;;;;5065998;28;20052;-74
2022/09/17 03:30:14;;;;;;;11.45;1.05;;;;;;;;;;5067624;28;20702;-74
2022/09/17 03:32:41;;;;;;;6.03;1.30;;;;;;;;;;5065752;28;20132;-73
2022/09/17 03:35:08;;;;;;;5.13;1.30;;;;;;;;;;5069380;28;20049;-74
2022/09/17 03:37:36;;;;;;;5.15;1.08;;;;;;;;;;5070924;28;20082;-73
2022/09/17 03:40:04;;;;;;;4.70;0.77;;;;;;;;;;5086980;28;20052;-74
2022/09/17 03:42:31;;;;;;;8.80;1.73;;;;;;;;;;5075393;28;20041;-73
2022/09/17 03:44:58;;;;;;;6.68;1.27;;;;;;;;;;5073321;28;20135;-73
2022/09/17 03:47:25;;;;;;;3.38;1.05;;;;;;;;;;5075796;28;20143;-74
2022/09/17 03:49:53;;;;;;;8.20;1.45;;;;;;;;;;5066449;28;20055;-73
2022/09/17 03:52:20;;;;;;;9.18;1.38;;;;;;;;;;5072772;28;20057;-74
2022/09/17 03:54:47;;;;;;;16.05;1.75;;;;;;;;;;5074462;28;20053;-74
2022/09/17 03:57:15;;;;;;;5.43;1.13;;;;;;;;;;5068464;28;20595;-74
2022/09/17 03:59:43;;;;;;;6.20;1.00;;;;;;;;;;5072620;28;20056;-74
2022/09/17 04:02:10;;;;;;;7.15;1.20;;;;;;;;;;5064846;28;20053;-74
2022/09/17 04:04:37;;;;;;;3.97;1.00;;;;;;;;;;5072910;28;20044;-74
2022/09/17 04:07:04;;;;;;;5.68;1.15;;;;;;;;;;5065930;28;20083;-73
2022/09/17 04:09:32;;;;;;;6.72;1.20;;;;;;;;;;5071512;28;20041;-74
2022/09/17 04:12:01;;;;;;;4.80;1.08;;;;;;;;;;5075946;28;21814;-75
2022/09/17 04:14:28;;;;;;;13.82;1.55;;;;;;;;;;5069761;28;20136;-74
2022/09/17 04:16:57;;;;;;;7.13;1.08;;;;;;;;;;5081285;28;20045;-74
2022/09/17 04:19:24;;;;;;;6.72;1.23;;;;;;;;;;5074636;28;20053;-75
2022/09/17 04:21:51;;;;;;;3.78;0.93;;;;;;;;;;5076895;28;20056;-73
2022/09/17 04:24:19;;;;;;;9.13;1.58;;;;;;;;;;5072776;28;20053;-74
2022/09/17 04:26:46;;;;;;;13.98;1.35;;;;;;;;;;5069140;28;20025;-74
2022/09/17 04:29:13;;;;;;;3.60;1.13;;;;;;;;;;5067618;28;20044;-73
2022/09/17 04:31:41;;;;;;;13.50;1.83;;;;;;;;;;5073789;28;20052;-73
2022/09/17 04:34:08;;;;;;;7.45;1.30;;;;;;;;;;5074208;28;20083;-74
2022/09/17 04:36:35;;;;;;;8.57;1.45;;;;;;;;;;5071078;28;20107;-74
2022/09/17 04:39:02;;;;;;;4.75;1.00;;;;;;;;;;5071117;28;20053;-74
2022/09/17 04:41:29;;;;;;;8.48;1.08;;;;;;;;;;5071728;28;20557;-73
2022/09/17 04:43:56;;;;;;;7.72;1.35;;;;;;;;;;5067384;28;20569;-74
2022/09/17 04:46:23;;;;;;;8.43;1.42;;;;;;;;;;5066409;28;20056;-74
2022/09/17 04:48:50;;;;;;;4.35;1.25;;;;;;;;;;5067918;28;20130;-74
2022/09/17 04:51:17;;;;;;;7.00;1.35;;;;;;;;;;5063857;28;20053;-74
2022/09/17 04:53:44;;;;;;;10.50;1.10;;;;;;;;;;5072157;28;20980;-75
2022/09/17 04:56:11;;;;;;;9.88;1.20;;;;;;;;;;5071411;28;20099;-74
2022/09/17 04:58:38;;;;;;;5.43;1.35;;;;;;;;;;5070052;28;20102;-74
2022/09/17 05:01:06;;;;;;;8.90;1.00;;;;;;;;;;5066277;28;20048;-74
2022/09/17 05:03:33;;;;;;;9.45;1.27;;;;;;;;;;5066532;28;20056;-74
2022/09/17 05:06:00;;;;;;;5.93;1.00;;;;;;;;;;5068007;28;20041;-75
2022/09/17 05:08:28;;;;;;;6.93;1.25;;;;;;;;;;5069434;28;20044;-74
2022/09/17 05:10:55;;;;;;;7.55;0.95;;;;;;;;;;5074313;28;20049;-73
2022/09/17 05:13:22;;;;;;;6.45;1.17;;;;;;;;;;5061649;28;20053;-73
2022/09/17 05:15:49;;;;;;;3.75;1.20;;;;;;;;;;5063058;28;20541;-74
2022/09/17 05:18:17;;;;;;;4.53;0.77;;;;;;;;;;5086080;28;20092;-75
2022/09/17 05:20:44;;;;;;;8.32;1.25;;;;;;;;;;5067589;28;20714;-74
2022/09/17 05:23:11;;;;;;;5.63;1.00;;;;;;;;;;5069965;28;20055;-75
2022/09/17 05:25:39;;;;;;;4.38;0.88;;;;;;;;;;5068922;28;20045;-74
2022/09/17 05:28:06;;;;;;;6.10;0.80;;;;;;;;;;5074003;28;20063;-75
2022/09/17 05:30:33;;;;;;;6.03;1.13;;;;;;;;;;5066254;28;20053;-75
2022/09/17 05:33:02;;;;;;;4.00;0.90;;;;;;;;;;5063813;28;20107;-74
2022/09/17 05:35:29;;;;;;;2.42;0.90;;;;;;;;;;5064153;28;20918;-74
2022/09/17 05:38:00;;;;;;;3.80;0.88;;;;;;;;;;5072203;28;20154;-74
2022/09/17 05:40:28;;;;;;;1.75;1.13;;;;;;;;;;5075672;28;20087;-74
2022/09/17 05:42:58;;;;;;;8.43;1.33;;;;;;;;;;5074050;28;20049;-74
2022/09/17 05:45:26;;;;;;;5.18;1.23;;;;;;;;;;5069704;28;20845;-73
2022/09/17 05:47:56;;;;;;;2.50;0.98;;;;;;;;;;5075147;28;20045;-74
2022/09/17 05:50:24;;;;;;;3.28;1.13;;;;;;;;;;5077921;28;20060;-74
2022/09/17 05:52:51;;;;;;;6.50;1.48;;;;;;;;;;5083985;28;20044;-74
2022/09/17 05:55:19;;;;;;;6.05;1.30;;;;;;;;;;5073799;28;20052;-74
2022/09/17 05:57:47;;;;;;;3.28;1.60;;;;;;;;;;5074314;28;20092;-73
2022/09/17 06:00:15;;;;;;;5.18;1.65;;;;;;;;;;5067365;28;20045;-74
2022/09/17 06:02:42;;;;;;;6.45;1.35;;;;;;;;;;5077708;28;20052;-74
2022/09/17 06:05:09;;;;;;;5.18;0.90;;;;;;;;;;5072872;28;20744;-75
2022/09/17 06:07:37;;;;;;;4.28;0.68;;;;;;;;;;5076754;28;20099;-75
2022/09/17 06:10:05;;;;;;;1.80;0.80;;;;;;;;;;5071816;28;20094;-74
2022/09/17 06:12:34;;;;;;;10.68;1.15;;;;;;;;;;5070266;28;20095;-74
2022/09/17 06:15:02;;;;;;;2.28;0.70;;;;;;;;;;5069582;28;20060;-74
2022/09/17 06:17:33;;;;;;;1.88;0.77;;;;;;;;;;5084044;28;20059;-75
2022/09/17 06:20:00;;;;;;;3.00;0.82;;;;;;;;;;5063463;28;20102;-74
2022/09/17 06:22:27;;;;;;;4.75;0.70;;;;;;;;;;5077256;28;20110;-75
2022/09/17 06:24:54;;;;;;;4.55;0.70;;;;;;;;;;5074764;28;20056;-75
2022/09/17 06:27:21;;;;;;;1.90;0.80;;;;;;;;;;5072826;28;20041;-74
2022/09/17 06:29:48;;;;;;;1.70;0.65;;;;;;;;;;5076977;28;20061;-74
2022/09/17 06:32:16;;;;;;;7.57;0.98;;;;;;;;;;5060497;28;20131;-75
2022/09/17 06:34:43;;;;;;;3.63;1.00;;;;;;;;;;5060391;28;20041;-75
2022/09/17 06:37:11;;;;;;;7.20;1.05;;;;;;;;;;5069633;28;20107;-76
2022/09/17 06:39:38;;;;;;;3.03;0.98;;;;;;;;;;5066969;28;20061;-76
2022/09/17 06:42:06;;;;;;;5.85;0.82;;;;;;;;;;5071373;28;20969;-76
2022/09/17 06:44:33;;;;;;;4.30;0.90;;;;;;;;;;5064839;28;20049;-76
2022/09/17 06:47:00;;;;;;;7.28;1.33;;;;;;;;;;5071860;28;20045;-75
2022/09/17 06:49:29;;;;;;;2.15;1.25;;;;;;;;;;5070201;28;20061;-75
2022/09/17 06:51:56;;;;;;;3.22;0.68;;;;;;;;;;5060608;28;20056;-75
2022/09/17 06:54:23;;;;;;;5.55;1.20;;;;;;;;;;5064402;28;20143;-76
2022/09/17 06:56:51;;;;;;;7.10;0.93;;;;;;;;;;5066474;28;20053;-74
2022/09/17 06:59:18;;;;;;;3.78;0.95;;;;;;;;;;5071783;28;20060;-75
2022/09/17 07:01:46;;;;;;;10.05;1.65;;;;;;;;;;5069711;28;20632;-76
2022/09/17 07:04:13;;;;;;;3.40;1.08;;;;;;;;;;5066680;28;20136;-75
2022/09/17 07:06:42;;;;;;;14.07;1.20;;;;;;;;;;5067123;28;20839;-74
2022/09/17 07:09:10;;;;;;;7.82;0.80;;;;;;;;;;5083332;28;20120;-74
2022/09/17 07:11:40;;;;;;;4.95;1.10;;;;;;;;;;5069552;28;20106;-74
2022/09/17 07:14:08;;;;;;;5.25;0.95;;;;;;;;;;5069672;28;20060;-75
2022/09/17 07:16:35;;;;;;;8.32;1.20;;;;;;;;;;5064603;28;20049;-73
2022/09/17 07:19:03;;;;;;;8.40;1.05;;;;;;;;;;5063959;28;20049;-75
2022/09/17 07:21:30;;;;;;;6.55;1.02;;;;;;;;;;5069181;28;20103;-75
2022/09/17 07:23:58;;;;;;;4.30;0.82;;;;;;;;;;5059316;28;20053;-74
2022/09/17 07:26:25;;;;;;;3.88;0.90;;;;;;;;;;5058514;28;20056;-75
2022/09/17 07:28:53;;;;;;;2.83;0.80;;;;;;;;;;5055596;28;20875;-74
2022/09/17 07:31:20;;;;;;;4.78;1.38;;;;;;;;;;5063783;28;20100;-74
2022/09/17 07:33:48;;;;;;;4.38;1.20;;;;;;;;;;5064188;28;20699;-75
2022/09/17 07:36:19;;;;;;;8.27;1.08;;;;;;;;;;5067905;28;20103;-74
2022/09/17 07:38:46;;;;;;;4.72;0.95;;;;;;;;;;5065843;28;20057;-75
2022/09/17 07:41:14;;;;;;;2.20;0.68;;;;;;;;;;5070583;28;20057;-74
2022/09/17 07:43:42;;;;;;;7.60;1.30;;;;;;;;;;5063137;28;20115;-74
2022/09/17 07:46:16;;;;;;;7.40;1.05;;;;;;;;;;5070789;28;20857;-74
2022/09/17 07:48:45;;;;;;;7.32;1.13;;;;;;;;;;5067807;28;20052;-75
2022/09/17 07:51:16;;;;;;;3.33;0.80;;;;;;;;;;5058013;28;20053;-74
2022/09/17 07:53:43;;;;;;;9.13;1.27;;;;;;;;;;5058117;28;20061;-74
2022/09/17 07:56:10;;;;;;;7.70;1.25;;;;;;;;;;5061113;28;20052;-74
2022/09/17 07:58:38;;;;;;;8.30;1.23;;;;;;;;;;5063430;28;20079;-74
2022/09/17 08:01:07;;;;;;;4.57;1.00;;;;;;;;;;5066201;28;20099;-74
2022/09/17 08:03:35;;;;;;;4.97;1.10;;;;;;;;;;5071698;28;20103;-74
2022/09/17 08:06:07;;;;;;;6.40;1.30;;;;;;;;;;5086069;28;20049;-74
2022/09/17 08:08:35;;;;;;;10.57;1.30;;;;;;;;;;5070417;28;20056;-74
2022/09/17 08:11:03;;;;;;;6.95;1.13;;;;;;;;;;5070873;28;20083;-74
2022/09/17 08:13:30;;;;;;;9.27;1.27;;;;;;;;;;5071939;28;20053;-73
2022/09/17 08:15:59;;;;;;;5.40;1.10;;;;;;;;;;5071694;28;20056;-74
2022/09/17 08:18:27;;;;;;;5.93;0.90;;;;;;;;;;5072555;28;20057;-74
2022/09/17 08:20:58;;;;;;;10.65;1.23;;;;;;;;;;5071970;28;20056;-74
2022/09/17 08:23:25;;;;;;;4.18;0.95;;;;;;;;;;5066695;28;20049;-74
2022/09/17 08:25:53;;;;;;;2.92;0.90;;;;;;;;;;5070074;28;20048;-74
2022/09/17 08:28:21;;;;;;;5.28;0.95;;;;;;;;;;5066562;28;20053;-75
2022/09/17 08:30:49;;;;;;;8.20;1.17;;;;;;;;;;5068712;28;20111;-74
2022/09/17 08:33:16;;;;;;;4.88;0.95;;;;;;;;;;5075116;28;20045;-76
2022/09/17 08:35:50;;;;;;;4.90;0.80;;;;;;;;;;5068473;28;20096;-76
2022/09/17 08:38:17;;;;;;;4.78;1.00;;;;;;;;;;5074941;28;20152;-76
2022/09/17 08:40:52;;;;;;;6.05;0.93;;;;;;;;;;5072109;28;20053;-77
2022/09/17 08:43:20;;;;;;;3.15;0.90;;;;;;;;;;5067851;28;20053;-75
2022/09/17 08:45:51;;;;;;;3.50;0.93;;;;;;;;;;5076023;28;20052;-75
2022/09/17 08:48:19;;;;;;;3.45;0.98;;;;;;;;;;5087677;28;20049;-75
2022/09/17 08:50:46;;;;;;;8.05;0.88;;;;;;;;;;5068563;28;20131;-76
2022/09/17 08:53:29;;;;;;;2.00;0.60;;;;;;;;;;5068315;28;20044;-76
2022/09/17 08:56:24;;;;;;;2.40;0.70;;;;;;;;;;5062806;28;20107;-76
2022/09/17 08:59:11;;;;;;;1.40;0.63;;;;;;;;;;5065906;28;20306;-76
2022/09/17 09:01:55;;;;;;;2.70;0.90;;;;;;;;;;5072079;28;20048;-75
2022/09/17 09:04:40;;;;;;;8.80;1.52;;;;;;;;;;5070825;28;20063;-74
2022/09/17 09:07:20;;;;;;;3.35;1.00;;;;;;;;;;5070210;28;20084;-75
2022/09/17 09:09:52;;;;;;;2.85;0.70;;;;;;;;;;5069833;28;20052;-75
2022/09/17 09:12:25;;;;;;;1.33;0.40;;;;;;;;;;5071411;28;20053;-75
2022/09/17 09:14:55;;;;;;;5.03;0.70;;;;;;;;;;5068181;28;20053;-74
2022/09/17 09:17:25;;;;;;;3.65;0.70;;;;;;;;;;5072501;28;20057;-74
2022/09/17 09:19:53;;;;;;;3.65;0.90;;;;;;;;;;5069834;28;20052;-74
2022/09/17 09:22:29;;;;;;;2.38;0.60;;;;;;;;;;5068730;28;20053;-75
2022/09/17 09:24:57;;;;;;;3.25;1.00;;;;;;;;;;5062864;28;20504;-74
2022/09/17 09:27:27;;;;;;;2.70;0.85;;;;;;;;;;5062445;28;20800;-74
2022/09/17 09:30:01;;;;;;;7.57;1.10;;;;;;;;;;5072721;28;20059;-74
2022/09/17 09:32:47;;;;;;;5.85;1.08;;;;;;;;;;5077226;28;20048;-74
2022/09/17 09:35:21;;;;;;;5.28;0.82;;;;;;;;;;5075447;28;20091;-75
2022/09/17 09:38:05;;;;;;;3.38;0.75;;;;;;;;;;5070001;28;20138;-74
2022/09/17 09:40:44;;;;;;;3.22;0.85;;;;;;;;;;5068584;28;20057;-75
2022/09/17 09:43:19;;;;;;;6.78;0.60;;;;;;;;;;5063621;28;20053;-74
2022/09/17 09:46:03;;;;;;;2.55;0.77;;;;;;;;;;5071061;28;20049;-74
2022/09/17 09:48:30;;;;;;;;;;;;;;;;;;5064003;28;20098;-75
2022/09/17 09:51:27;;;;;;;4.85;1.02;;;;;;;;;;5077116;28;43387;-74
2022/09/17 09:54:03;;;;;;;2.92;0.85;;;;;;;;;;5077364;28;20098;-73
2022/09/17 09:56:49;;;;;;;5.10;0.93;;;;;;;;;;5066301;28;20041;-73
2022/09/17 09:59:18;;;;;;;4.13;0.70;;;;;;;;;;5070107;28;20103;-74
2022/09/17 10:01:45;;;;;;;5.47;0.85;;;;;;;;;;5069074;28;20057;-74
2022/09/17 10:04:17;;;;;;;4.68;0.75;;;;;;;;;;5074350;28;20041;-74
2022/09/17 10:06:45;;;;;;;6.47;1.00;;;;;;;;;;5066469;28;20115;-75
2022/09/17 10:09:13;;;;;;;6.97;1.17;;;;;;;;;;5083086;28;20080;-77
2022/09/17 10:11:41;;;;;;;5.88;0.95;;;;;;;;;;5077499;28;20515;-77
2022/09/17 10:14:15;;;;;;;2.55;0.65;;;;;;;;;;5074128;28;20045;-76
2022/09/17 10:16:42;;;;;;;3.38;0.93;;;;;;;;;;5065340;28;20049;-76
2022/09/17 10:19:13;;;;;;;3.15;0.75;;;;;;;;;;5080328;28;20045;-76
2022/09/17 10:21:42;;;;;;;4.07;0.60;;;;;;;;;;5070051;28;20057;-76
2022/09/17 10:24:26;;;;;;;4.00;0.88;;;;;;;;;;5070463;28;20053;-76
2022/09/17 10:27:16;;;;;;;4.05;0.70;;;;;;;;;;5074638;28;20075;-75
2022/09/17 10:29:45;;;;;;;3.00;0.60;;;;;;;;;;5072438;28;20059;-75
2022/09/17 10:32:16;;;;;;;2.00;0.65;;;;;;;;;;5074423;28;20049;-76
2022/09/17 10:34:57;;;;;;;3.17;0.82;;;;;;;;;;5074825;28;20078;-74
2022/09/17 10:37:44;;;;;;;6.88;0.65;;;;;;;;;;5077779;28;20048;-75
2022/09/17 10:40:18;;;;;;;5.20;0.82;;;;;;;;;;5071638;28;20131;-75
2022/09/17 10:42:46;;;;;;;8.00;1.20;;;;;;;;;;5075025;28;20053;-75
2022/09/17 10:45:27;;;;;;;6.22;0.90;;;;;;;;;;5072662;28;20072;-75
2022/09/17 10:47:55;;;;;;;5.50;1.42;;;;;;;;;;5069079;28;20861;-75
2022/09/17 10:50:25;;;;;;;5.07;0.45;;;;;;;;;;5075083;28;20519;-75
2022/09/17 10:52:56;;;;;;;3.47;0.77;;;;;;;;;;5069687;28;20103;-74
2022/09/17 10:55:27;;;;;;;5.50;1.15;;;;;;;;;;5079209;28;20064;-75
2022/09/17 10:58:11;;;;;;;5.55;1.20;;;;;;;;;;5071612;28;20095;-75
2022/09/17 11:00:57;;;;;;;9.43;1.48;;;;;;;;;;5075136;28;20571;-75
2022/09/17 11:03:43;;;;;;;6.22;0.85;;;;;;;;;;5075234;28;20060;-74
2022/09/17 11:06:14;;;;;;;6.40;1.02;;;;;;;;;;5077742;28;20056;-74
2022/09/17 11:08:44;;;;;;;5.70;1.13;;;;;;;;;;5080627;28;20049;-75
2022/09/17 11:11:20;;;;;;;4.30;0.68;;;;;;;;;;5075926;28;20049;-75
2022/09/17 11:13:57;;;;;;;9.98;0.95;;;;;;;;;;5078574;28;20037;-75
2022/09/17 11:16:32;;;;;;;6.15;1.13;;;;;;;;;;5077239;28;20044;-75
2022/09/17 11:19:09;;;;;;;5.22;1.23;;;;;;;;;;5076883;28;20055;-74
2022/09/17 11:21:41;;;;;;;5.53;1.10;;;;;;;;;;5069431;28;20127;-74
2022/09/17 11:24:08;;;;;;;4.30;1.13;;;;;;;;;;5068769;28;20087;-75
2022/09/17 11:26:44;;;;;;;5.22;1.10;;;;;;;;;;5064156;28;20056;-74
2022/09/17 11:29:28;;;;;;;10.13;1.77;;;;;;;;;;5059525;28;20049;-74
2022/09/17 11:32:25;;;;;;;9.30;1.25;;;;;;;;;;5062752;28;20049;-75
2022/09/17 11:34:58;;;;;;;5.22;1.10;;;;;;;;;;5063080;28;20057;-75
2022/09/17 11:37:28;;;;;;;9.52;1.30;;;;;;;;;;5061111;28;20064;-74
2022/09/17 11:40:00;;;;;;;11.18;1.50;;;;;;;;;;5062367;28;20045;-75
2022/09/17 11:42:31;;;;;;;6.03;1.38;;;;;;;;;;5071870;28;20060;-74
2022/09/17 11:45:18;;;;;;;10.18;1.70;;;;;;;;;;5064791;28;20045;-74
2022/09/17 11:47:52;;;;;;;4.40;0.73;;;;;;;;;;5061335;28;20049;-75
2022/09/17 11:50:19;;;;;;;;;;;;;;;;;;5077137;28;20092;-75
2022/09/17 11:52:51;;;;;;;7.95;1.27;;;;;;;;;;5065230;28;44752;-74
2022/09/17 11:55:18;;;;;;;7.65;1.50;;;;;;;;;;5064607;28;20053;-74
2022/09/17 11:57:46;;;;;;;9.45;1.45;;;;;;;;;;5064590;28;20056;-74
2022/09/17 12:00:14;;;;;;;7.18;1.15;;;;;;;;;;5065746;28;20053;-75
2022/09/17 12:02:48;;;;;;;6.95;1.35;;;;;;;;;;5060473;28;20071;-74
2022/09/17 12:05:45;;;;;;;3.40;1.20;;;;;;;;;;5062994;28;20049;-73
2022/09/17 12:08:25;;;;;;;10.27;1.48;;;;;;;;;;5060334;28;20515;-74
2022/09/17 12:11:11;;;;;;;4.65;1.00;;;;;;;;;;5068417;28;20053;-74
2022/09/17 12:13:44;;;;;;;8.57;1.27;;;;;;;;;;5086127;28;20048;-74
2022/09/17 12:16:11;;;;;;;5.18;1.30;;;;;;;;;;5079278;28;20107;-74
2022/09/17 12:18:51;;;;;;;10.32;1.35;;;;;;;;;;5063451;28;20045;-75
2022/09/17 12:21:24;;;;;;;4.13;0.88;;;;;;;;;;5083282;28;20059;-74
2022/09/17 12:23:56;;;;;;;10.25;1.35;;;;;;;;;;5065928;28;20053;-74
2022/09/17 12:26:32;;;;;;;5.22;0.80;;;;;;;;;;5060914;28;20060;-74
2022/09/17 12:29:19;;;;;;;3.50;0.70;;;;;;;;;;5062390;28;20861;-74
2022/09/17 12:31:55;;;;;;;4.97;0.90;;;;;;;;;;5062390;28;20156;-74
2022/09/17 12:34:27;;;;;;;7.72;1.30;;;;;;;;;;5062634;28;20137;-74
2022/09/17 12:37:26;;;;;;;4.72;1.02;;;;;;;;;;5064555;28;20751;-73
2022/09/17 12:40:05;;;;;;;6.90;1.05;;;;;;;;;;5042156;28;20092;-74
2022/09/17 12:42:53;;;;;;;6.03;1.02;;;;;;;;;;5063544;28;20049;-74
2022/09/17 12:45:36;;;;;;;3.60;0.90;;;;;;;;;;5062638;28;20056;-75
2022/09/17 12:48:22;;;;;;;3.20;1.00;;;;;;;;;;5061268;28;20798;-75
2022/09/17 12:51:01;;;;;;;4.65;1.08;;;;;;;;;;5061399;28;20063;-75
2022/09/17 12:53:30;;;;;;;3.70;1.33;;;;;;;;;;5063890;28;20053;-75
2022/09/17 12:56:16;;;;;;;4.43;0.90;;;;;;;;;;5061373;28;20048;-76
2022/09/17 12:59:04;;;;;;;6.72;1.30;;;;;;;;;;5066200;28;20053;-76
2022/09/17 13:01:45;;;;;;;8.27;1.30;;;;;;;;;;5061202;28;20103;-76
2022/09/17 13:04:39;;;;;;;9.82;1.48;;;;;;;;;;5061959;28;20048;-75
2022/09/17 13:07:35;;;;;;;6.78;1.25;;;;;;;;;;5061280;28;20045;-75
2022/09/17 13:10:02;;;;;;;14.60;1.67;;;;;;;;;;5060001;28;21191;-75
2022/09/17 13:12:33;;;;;;;8.75;1.35;;;;;;;;;;5061541;28;20053;-75
2022/09/17 13:15:00;;;;;;;5.60;1.30;;;;;;;;;;5060676;28;20045;-76
2022/09/17 13:17:38;;;;;;;3.13;0.63;;;;;;;;;;5065916;28;20538;-76
2022/09/17 13:20:14;;;;;;;10.13;1.77;;;;;;;;;;5061431;28;20420;-76
2022/09/17 13:22:49;;;;;;;4.57;1.20;;;;;;;;;;5066236;28;20931;-75
2022/09/17 13:25:17;;;;;;;5.38;1.27;;;;;;;;;;5059041;28;20045;-76
2022/09/17 13:27:47;;;;;;;7.60;1.20;;;;;;;;;;5061190;28;20052;-75
2022/09/17 13:30:15;;;;;;;8.52;1.27;;;;;;;;;;5060844;28;20100;-75
2022/09/17 13:32:43;;;;;;;11.40;1.58;;;;;;;;;;5063153;28;20053;-75
2022/09/17 13:35:13;;;;;;;8.77;1.55;;;;;;;;;;5064142;28;20057;-76
2022/09/17 13:37:44;;;;;;;5.75;1.52;;;;;;;;;;5059332;28;20045;-75
2022/09/17 13:40:21;;;;;;;8.65;1.42;;;;;;;;;;5061506;28;20072;-74
2022/09/17 13:42:51;;;;;;;9.00;1.60;;;;;;;;;;5075522;28;21034;-75
2022/09/17 13:45:22;;;;;;;5.25;1.45;;;;;;;;;;5060818;28;20160;-74
2022/09/17 13:47:54;;;;;;;6.20;1.30;;;;;;;;;;5069131;28;20048;-74
2022/09/17 13:50:35;;;;;;;11.15;1.25;;;;;;;;;;5062338;28;20110;-75
2022/09/17 13:53:08;;;;;;;8.77;1.35;;;;;;;;;;5062709;28;21758;-74
2022/09/17 13:55:41;;;;;;;10.20;1.80;;;;;;;;;;5062059;28;20053;-75
2022/09/17 13:58:08;;;;;;;;;;;;;;;;;;5065183;28;20053;-75
2022/09/17 14:00:52;;;;;;;8.13;0.95;;;;;;;;;;5063558;28;42523;-74
2022/09/17 14:03:26;;;;;;;6.10;0.88;;;;;;;;;;5064221;28;20057;-74
2022/09/17 14:05:53;;;;;;;;;;;;;;;;;;5062078;28;20045;-74
2022/09/17 14:08:28;;;;;;;5.55;1.33;;;;;;;;;;5053307;28;44814;-75
2022/09/17 14:10:56;;;;;;;5.00;0.95;;;;;;;;;;5057385;28;20060;-75
2022/09/17 14:13:25;;;;;;;6.70;1.23;;;;;;;;;;5075425;28;20049;-75
2022/09/17 14:16:00;;;;;;;8.50;0.90;;;;;;;;;;5067362;28;20056;-75
2022/09/17 14:18:27;;;;;;;6.18;1.15;;;;;;;;;;5059880;28;20049;-75
2022/09/17 14:21:14;;;;;;;5.50;1.17;;;;;;;;;;5060828;28;20052;-76
2022/09/17 14:23:53;;;;;;;7.25;1.10;;;;;;;;;;5058882;28;20084;-75
2022/09/17 14:26:40;;;;;;;7.85;1.40;;;;;;;;;;5066243;28;20025;-75
2022/09/17 14:29:18;;;;;;;4.13;0.93;;;;;;;;;;5066090;28;20533;-75
2022/09/17 14:31:45;;;;;;;4.68;1.00;;;;;;;;;;5064580;28;20045;-75
2022/09/17 14:34:18;;;;;;;5.28;1.10;;;;;;;;;;5064489;28;20034;-74
2022/09/17 14:36:45;;;;;;;;;;;;;;;;;;5063988;28;20060;-74
2022/09/17 14:39:20;;;;;;;10.35;1.58;;;;;;;;;;5060486;28;44339;-74
2022/09/17 14:41:48;;;;;;;5.88;1.58;;;;;;;;;;5064925;28;20883;-73
2022/09/17 14:44:18;;;;;;;11.98;1.30;;;;;;;;;;5070314;28;20103;-74
2022/09/17 14:46:58;;;;;;;11.75;1.52;;;;;;;;;;5068116;28;20059;-74
2022/09/17 14:49:27;;;;;;;4.30;1.45;;;;;;;;;;5066750;28;20049;-75
2022/09/17 14:51:55;;;;;;;7.72;1.75;;;;;;;;;;5062002;28;20057;-74
2022/09/17 14:54:24;;;;;;;4.38;1.08;;;;;;;;;;5062162;28;20053;-74
2022/09/17 14:56:53;;;;;;;9.80;1.67;;;;;;;;;;5058488;28;20037;-74
2022/09/17 14:59:23;;;;;;;7.32;1.40;;;;;;;;;;5066160;28;20037;-74
2022/09/17 15:01:50;;;;;;;11.70;2.38;;;;;;;;;;5065887;28;20053;-75
2022/09/17 15:04:20;;;;;;;6.32;1.50;;;;;;;;;;5066962;28;20056;-74
2022/09/17 15:06:50;;;;;;;10.07;2.20;;;;;;;;;;5065176;28;20049;-74
2022/09/17 15:09:19;;;;;;;14.43;1.65;;;;;;;;;;5064269;28;20052;-75
2022/09/17 15:11:47;;;;;;;7.97;1.65;;;;;;;;;;5071942;28;20481;-73